createdAt,value
2022-11-17T05:00:34.382Z,3.00
2022-11-17T05:03:01.999Z,3.20
2022-11-17T05:05:30.151Z,4.10
2022-11-17T05:07:58.186Z,2.80
2022-11-17T05:10:46.829Z,3.10
2022-11-17T05:13:22.859Z,3.30
2022-11-17T05:16:09.623Z,3.10
2022-11-17T05:18:37.516Z,3.00
2022-11-17T05:21:07.721Z,3.40
2022-11-17T05:23:54.825Z,3.50
2022-11-17T05:26:26.440Z,2.80
2022-11-17T05:28:56.731Z,2.90
2022-11-17T05:31:25.935Z,3.70
2022-11-17T05:33:54.682Z,3.50
2022-11-17T05:36:24.442Z,3.80
2022-11-17T05:38:53.341Z,4.40
2022-11-17T05:41:23.093Z,7.00
2022-11-17T05:43:51.682Z,10.90
2022-11-17T05:46:21.091Z,3.40
2022-11-17T05:48:53.481Z,3.80
2022-11-17T05:51:26.381Z,4.50
2022-11-17T05:53:53.747Z,2.90
2022-11-17T05:56:36.534Z,3.30
2022-11-17T05:59:07.705Z,12.00
2022-11-17T06:01:39.350Z,2.90
2022-11-17T06:04:08.925Z,3.80
2022-11-17T06:06:38.250Z,5.60
2022-11-17T06:09:06.338Z,4.30
2022-11-17T06:11:34.586Z,3.60
2022-11-17T06:14:01.921Z,3.20
2022-11-17T06:16:33.692Z,4.10
2022-11-17T06:19:06.964Z,4.10
2022-11-17T06:22:04.549Z,2.70
2022-11-17T06:24:25.036Z,2.80
2022-11-17T06:26:52.684Z,2.70
2022-11-17T06:29:20.488Z,5.80
2022-11-17T06:31:48.323Z,3.40
2022-11-17T06:34:15.936Z,3.80
2022-11-17T06:36:43.175Z,2.90
2022-11-17T06:39:11.005Z,3.70
2022-11-17T06:41:40.259Z,3.00
2022-11-17T06:44:08.093Z,3.60
2022-11-17T06:46:38.354Z,3.10
2022-11-17T06:49:09.445Z,2.70
2022-11-17T06:51:38.897Z,3.60
2022-11-17T06:54:12.606Z,3.10
2022-11-17T06:56:40.841Z,2.90
2022-11-17T06:59:08.931Z,3.00
2022-11-17T07:01:38.667Z,4.00
2022-11-17T07:04:07.098Z,6.30
2022-11-17T07:06:37.469Z,20.80
2022-11-17T07:09:06.015Z,11.90
2022-11-17T07:11:36.660Z,4.30
2022-11-17T07:14:04.370Z,4.10
2022-11-17T07:16:32.857Z,3.40
2022-11-17T07:19:03.964Z,3.90
2022-11-17T07:21:31.440Z,3.60
2022-11-17T07:23:59.254Z,3.30
2022-11-17T07:26:26.990Z,3.50
2022-11-17T07:28:54.374Z,4.10
2022-11-17T07:31:22.105Z,4.10
2022-11-17T07:33:50.821Z,3.60
2022-11-17T07:36:18.785Z,3.70
2022-11-17T07:38:46.558Z,3.70
2022-11-17T07:41:15.736Z,4.10
2022-11-17T07:43:43.581Z,3.90
2022-11-17T07:46:13.730Z,3.80
2022-11-17T07:48:43.761Z,3.90
2022-11-17T07:51:14.572Z,4.70
2022-11-17T07:53:42.280Z,3.70
2022-11-17T07:56:12.652Z,3.90
2022-11-17T07:58:40.930Z,4.20
2022-11-17T08:01:11.282Z,4.30
2022-11-17T08:03:39.288Z,4.70
2022-11-17T08:06:09.604Z,4.30
2022-11-17T08:08:38.808Z,4.10
2022-11-17T08:11:11.935Z,4.60
2022-11-17T08:13:42.725Z,4.30
2022-11-17T08:16:11.363Z,4.60
2022-11-17T08:18:39.924Z,4.90
2022-11-17T08:21:10.469Z,4.60
2022-11-17T08:23:38.882Z,4.30
2022-11-17T08:26:08.623Z,4.00
2022-11-17T08:28:37.428Z,4.80
2022-11-17T08:31:07.462Z,4.30
2022-11-17T08:33:35.374Z,5.00
2022-11-17T08:36:07.765Z,3.90
2022-11-17T08:38:36.573Z,4.40
2022-11-17T08:41:08.665Z,5.30
2022-11-17T08:43:36.651Z,4.10
2022-11-17T08:46:04.847Z,4.90
2022-11-17T08:48:33.791Z,4.50
2022-11-17T08:51:06.616Z,4.30
2022-11-17T08:53:35.218Z,4.50
2022-11-17T08:56:08.047Z,4.80
2022-11-17T08:58:43.715Z,4.60
2022-11-17T09:01:13.489Z,4.30
2022-11-17T09:03:44.654Z,4.20
2022-11-17T09:06:13.792Z,3.80
2022-11-17T09:08:46.659Z,4.00
2022-11-17T09:13:46.027Z,4.40
2022-11-17T09:16:15.338Z,4.50
2022-11-17T09:18:44.391Z,5.30
2022-11-17T09:21:16.084Z,4.70
2022-11-17T09:23:44.557Z,4.20
2022-11-17T09:26:14.567Z,4.60
2022-11-17T09:28:43.311Z,4.70
2022-11-17T09:31:16.971Z,4.70
2022-11-17T09:33:45.155Z,4.20
2022-11-17T09:36:14.972Z,3.90
2022-11-17T09:38:43.323Z,4.40
2022-11-17T09:41:26.964Z,4.90
2022-11-17T09:44:21.347Z,4.50
2022-11-17T09:50:02.895Z,4.40
2022-11-17T09:53:06.556Z,4.70
2022-11-17T09:55:39.482Z,4.70
2022-11-17T09:58:47.619Z,4.90
2022-11-17T10:01:21.927Z,4.90
2022-11-17T10:03:54.121Z,5.20
2022-11-17T10:06:27.899Z,5.40
2022-11-17T10:09:01.409Z,5.60
2022-11-17T10:11:36.693Z,5.20
2022-11-17T10:14:11.234Z,5.70
2022-11-17T10:16:41.573Z,5.20
2022-11-17T10:19:39.591Z,5.20
2022-11-17T10:22:07.691Z,5.60
2022-11-17T10:24:34.905Z,5.80
2022-11-17T10:27:07.534Z,5.20
2022-11-17T10:29:35.001Z,5.90
2022-11-17T10:32:08.590Z,5.30
2022-11-17T10:34:41.347Z,4.50
2022-11-17T10:37:18.647Z,4.90
2022-11-17T10:39:46.391Z,5.30
2022-11-17T10:42:22.313Z,4.70
2022-11-17T10:44:53.209Z,5.00
2022-11-17T10:47:40.603Z,5.00
2022-11-17T10:50:28.351Z,4.80
2022-11-17T10:53:26.886Z,5.10
2022-11-17T10:55:58.311Z,6.20
2022-11-17T10:58:29.459Z,5.50
2022-11-17T11:01:03.142Z,8.30
2022-11-17T11:03:36.094Z,5.60
2022-11-17T11:06:23.264Z,5.10
2022-11-17T11:09:00.421Z,7.00
2022-11-17T11:11:45.745Z,6.20
2022-11-17T11:14:19.047Z,5.50
2022-11-17T11:16:48.706Z,5.00
2022-11-17T11:19:18.867Z,12.80
2022-11-17T11:22:09.202Z,5.70
2022-11-17T11:24:45.621Z,5.20
2022-11-17T11:27:42.184Z,9.40
2022-11-17T11:30:16.831Z,6.10
2022-11-17T11:32:43.939Z,5.20
2022-11-17T11:35:46.160Z,5.10
2022-11-17T11:38:33.563Z,5.20
2022-11-17T11:41:27.100Z,4.80
2022-11-17T11:44:21.593Z,6.30
2022-11-17T11:47:20.428Z,9.00
2022-11-17T11:50:16.389Z,6.00
2022-11-17T11:53:24.340Z,6.50
2022-11-17T11:56:10.146Z,7.80
2022-11-17T11:58:44.974Z,7.60
2022-11-17T12:01:14.147Z,7.90
2022-11-17T12:03:44.942Z,9.50
2022-11-17T12:06:54.676Z,9.20
2022-11-17T12:09:44.662Z,7.30
2022-11-17T12:12:18.763Z,9.50
2022-11-17T12:15:22.077Z,7.10
2022-11-17T12:18:16.696Z,11.60
2022-11-17T12:21:05.274Z,19.40
2022-11-17T12:23:54.592Z,11.60
2022-11-17T12:26:28.014Z,8.90
2022-11-17T12:29:21.055Z,19.10
2022-11-17T12:31:50.403Z,10.50
2022-11-17T12:34:31.027Z,5.40
2022-11-17T12:37:08.106Z,5.30
2022-11-17T12:39:58.713Z,6.70
2022-11-17T12:42:28.167Z,5.20
2022-11-17T12:45:04.482Z,6.10
2022-11-17T12:47:34.180Z,4.70
2022-11-17T12:50:20.595Z,20.00
2022-11-17T12:53:15.581Z,8.10
2022-11-17T12:56:08.587Z,4.60
2022-11-17T12:58:43.467Z,5.00
2022-11-17T13:01:49.297Z,5.60
2022-11-17T13:04:43.815Z,5.00
2022-11-17T13:07:24.208Z,7.70
2022-11-17T13:09:54.335Z,4.80
2022-11-17T13:12:24.872Z,4.60
2022-11-17T13:15:05.331Z,4.60
2022-11-17T13:17:44.524Z,5.10
2022-11-17T13:20:24.122Z,5.20
2022-11-17T13:23:14.881Z,9.50
2022-11-17T13:25:42.944Z,6.40
2022-11-17T13:28:32.080Z,6.30
2022-11-17T13:31:02.222Z,4.80
2022-11-17T13:33:34.330Z,4.50
2022-11-17T13:36:20.171Z,4.30
2022-11-17T13:38:50.102Z,5.10
2022-11-17T13:41:20.865Z,4.50
2022-11-17T13:43:51.183Z,5.90
2022-11-17T13:46:20.016Z,5.10
2022-11-17T13:48:50.642Z,5.10
2022-11-17T13:51:18.664Z,6.10
2022-11-17T13:54:13.171Z,14.30
2022-11-17T13:56:46.992Z,8.70
2022-11-17T13:59:24.516Z,19.30
2022-11-17T14:02:22.543Z,16.90
2022-11-17T14:05:15.009Z,107.40
2022-11-17T14:07:48.684Z,40.30
2022-11-17T14:13:02.163Z,16.50
2022-11-17T14:15:37.346Z,28.80
2022-11-17T14:18:37.937Z,30.80
2022-11-17T14:21:11.291Z,52.70
2022-11-17T14:23:40.445Z,26.10
2022-11-17T14:26:21.892Z,84.00
2022-11-17T14:28:52.141Z,36.20
2022-11-17T14:31:21.136Z,79.70
2022-11-17T14:33:50.659Z,87.30
2022-11-17T14:36:19.222Z,48.90
2022-11-17T14:38:48.128Z,119.70
2022-11-17T14:41:17.900Z,43.30
2022-11-17T14:43:45.263Z,45.40
2022-11-17T14:46:25.163Z,87.70
2022-11-17T14:48:53.823Z,160.90
2022-11-17T14:51:21.764Z,174.10
2022-11-17T14:53:48.996Z,68.20
2022-11-17T14:56:18.677Z,38.10
2022-11-17T14:58:47.923Z,91.40
2022-11-17T15:01:26.142Z,36.10
2022-11-17T15:03:55.533Z,88.40
2022-11-17T15:06:23.270Z,77.50
2022-11-17T15:09:08.504Z,117.60
2022-11-17T15:11:39.366Z,38.20
2022-11-17T15:14:08.136Z,20.80
2022-11-17T15:16:36.283Z,7.50
2022-11-17T15:19:03.927Z,7.00
2022-11-17T15:21:31.205Z,9.80
2022-11-17T15:23:58.781Z,24.70
2022-11-17T15:26:26.752Z,6.60
2022-11-17T15:28:57.969Z,9.50
2022-11-17T15:31:27.068Z,31.10
2022-11-17T15:33:54.255Z,19.40
2022-11-17T15:36:25.725Z,16.30
2022-11-17T15:38:53.836Z,26.00
2022-11-17T15:41:21.782Z,35.40
2022-11-17T15:43:49.364Z,22.30
2022-11-17T15:46:18.846Z,17.50
2022-11-17T15:48:49.538Z,19.00
2022-11-17T15:51:21.791Z,54.30
2022-11-17T15:53:51.359Z,15.40
2022-11-17T15:56:21.795Z,30.50
2022-11-17T15:58:55.311Z,21.30
2022-11-17T16:01:37.933Z,14.90
2022-11-17T16:04:11.577Z,11.90
2022-11-17T16:06:41.575Z,8.40
2022-11-17T16:09:10.268Z,23.20
2022-11-17T16:11:39.025Z,38.70
2022-11-17T16:14:08.676Z,13.20
2022-11-17T16:16:39.455Z,82.60
2022-11-17T16:19:08.434Z,63.60
2022-11-17T16:21:36.211Z,65.00
2022-11-17T16:24:03.557Z,57.30
2022-11-17T16:26:31.831Z,55.00
2022-11-17T16:29:02.322Z,53.70
2022-11-17T16:31:32.741Z,47.70
2022-11-17T16:34:12.663Z,34.50
2022-11-17T16:36:42.400Z,24.90
2022-11-17T16:39:13.452Z,13.80
2022-11-17T16:41:43.769Z,9.90
2022-11-17T16:44:17.331Z,26.30
2022-11-17T16:46:50.812Z,15.40
2022-11-17T16:49:20.718Z,17.80
2022-11-17T16:51:50.730Z,14.30
2022-11-17T16:54:20.043Z,22.60
2022-11-17T16:56:47.981Z,19.30
2022-11-17T16:59:16.525Z,45.10
2022-11-17T17:01:44.778Z,20.50
2022-11-17T17:04:12.870Z,9.30
2022-11-17T17:06:42.642Z,12.10
2022-11-17T17:09:12.820Z,7.80
2022-11-17T17:11:41.920Z,9.10
2022-11-17T17:14:14.384Z,7.90
2022-11-17T17:16:43.335Z,16.20
2022-11-17T17:19:13.402Z,7.90
2022-11-17T17:21:42.517Z,16.00
2022-11-17T17:24:11.258Z,27.30
2022-11-17T17:26:40.428Z,15.10
2022-11-17T17:29:08.463Z,13.30
2022-11-17T17:31:38.841Z,11.00
2022-11-17T17:34:07.838Z,10.90
2022-11-17T17:36:39.078Z,11.50
2022-11-17T17:39:07.453Z,9.50
2022-11-17T17:41:39.807Z,18.90
2022-11-17T17:44:08.831Z,17.70
2022-11-17T17:46:38.765Z,12.80
2022-11-17T17:49:07.373Z,17.60
2022-11-17T17:51:40.702Z,14.00
2022-11-17T17:54:13.576Z,9.80
2022-11-17T17:56:41.365Z,10.70
2022-11-17T17:59:08.561Z,10.10
2022-11-17T18:01:37.792Z,9.50
2022-11-17T18:04:05.487Z,10.30
2022-11-17T18:06:40.834Z,10.20
2022-11-17T18:09:10.620Z,11.80
2022-11-17T18:11:46.169Z,14.30
2022-11-17T18:14:14.129Z,11.10
2022-11-17T18:16:41.636Z,9.10
2022-11-17T18:19:13.420Z,9.10
2022-11-17T18:21:40.993Z,9.10
2022-11-17T18:24:08.589Z,6.80
2022-11-17T18:26:36.414Z,8.50
2022-11-17T18:29:16.357Z,9.10
2022-11-17T18:31:46.913Z,7.60
2022-11-17T18:34:21.360Z,8.20
2022-11-17T18:36:51.282Z,11.80
2022-11-17T18:39:19.438Z,11.40
2022-11-17T18:41:47.782Z,8.40
2022-11-17T18:45:08.803Z,7.40
2022-11-17T18:47:36.551Z,8.20
2022-11-17T18:50:05.021Z,8.40
2022-11-17T18:52:32.305Z,8.10
2022-11-17T18:54:59.876Z,14.70
2022-11-17T18:57:27.310Z,15.50
2022-11-17T18:59:54.692Z,17.00
2022-11-17T19:02:22.354Z,39.50
2022-11-17T19:04:49.836Z,263.00
2022-11-17T19:07:17.496Z,107.10
2022-11-17T19:09:44.719Z,21.30
2022-11-17T19:12:12.808Z,16.60
2022-11-17T19:14:40.043Z,12.70
2022-11-17T19:17:07.313Z,12.10
2022-11-17T19:19:34.589Z,14.50
2022-11-17T19:22:01.948Z,13.60
2022-11-17T19:24:29.251Z,13.10
2022-11-17T19:26:56.489Z,18.20
2022-11-17T19:29:23.814Z,11.20
2022-11-17T19:31:52.980Z,11.10
2022-11-17T19:34:20.271Z,13.10
2022-11-17T19:36:47.719Z,10.20
2022-11-17T19:39:15.560Z,10.80
2022-11-17T19:41:43.838Z,14.60
2022-11-17T19:44:11.558Z,13.60
2022-11-17T19:46:40.445Z,13.70
2022-11-17T19:49:08.982Z,11.10
2022-11-17T19:51:37.320Z,10.60
2022-11-17T19:54:09.345Z,11.20
2022-11-17T19:56:38.617Z,11.10
2022-11-17T19:59:09.722Z,10.20
2022-11-17T20:01:40.236Z,11.40
2022-11-17T20:04:08.262Z,13.50
2022-11-17T20:06:39.010Z,12.10
2022-11-17T20:09:09.296Z,11.50
2022-11-17T20:11:37.176Z,12.20
2022-11-17T20:14:04.898Z,11.60
2022-11-17T20:16:32.744Z,16.50
2022-11-17T20:19:02.253Z,15.00
2022-11-17T20:21:31.593Z,13.70
2022-11-17T20:23:59.854Z,13.10
2022-11-17T20:26:32.240Z,21.70
2022-11-17T20:29:00.959Z,15.40
2022-11-17T20:31:31.714Z,14.60
2022-11-17T20:34:00.987Z,14.10
2022-11-17T20:36:30.087Z,14.20
2022-11-17T20:39:00.570Z,15.70
2022-11-17T20:41:29.680Z,15.60
2022-11-17T20:43:59.324Z,17.70
2022-11-17T20:46:27.249Z,19.50
2022-11-17T20:48:55.025Z,18.90
2022-11-17T20:51:25.438Z,16.20
2022-11-17T20:53:53.096Z,14.40
2022-11-17T20:56:21.665Z,14.30
2022-11-17T20:58:49.575Z,16.30
2022-11-17T21:01:20.094Z,14.70
2022-11-17T21:03:47.872Z,13.80
2022-11-17T21:06:16.217Z,14.00
2022-11-17T21:08:45.492Z,14.60
2022-11-17T21:11:39.825Z,19.10
2022-11-17T21:14:09.368Z,15.20
2022-11-17T21:16:39.164Z,15.20
2022-11-17T21:19:06.932Z,18.80
2022-11-17T21:21:34.414Z,14.20
2022-11-17T21:24:02.549Z,17.00
2022-11-17T21:26:32.511Z,15.80
2022-11-17T21:29:06.007Z,16.50
2022-11-17T21:31:34.389Z,16.30
2022-11-17T21:34:04.683Z,23.40
2022-11-17T21:36:33.935Z,19.10
2022-11-17T21:39:02.192Z,15.60
2022-11-17T21:41:34.944Z,17.40
2022-11-17T21:44:03.420Z,17.50
2022-11-17T21:46:34.204Z,16.80
2022-11-17T21:49:02.025Z,17.10
2022-11-17T21:51:35.340Z,16.50
2022-11-17T21:54:05.036Z,16.10
2022-11-17T21:56:33.138Z,15.40
2022-11-17T21:59:08.071Z,16.50
2022-11-17T22:01:36.426Z,16.60
2022-11-17T22:04:03.917Z,16.80
2022-11-17T22:06:31.589Z,14.90
2022-11-17T22:08:59.983Z,17.60
2022-11-17T22:11:36.547Z,16.60
2022-11-17T22:14:06.707Z,19.50
2022-11-17T22:16:36.332Z,15.30
2022-11-17T22:19:04.469Z,14.50
2022-11-17T22:21:33.526Z,14.80
2022-11-17T22:24:01.241Z,17.30
2022-11-17T22:26:29.066Z,14.30
2022-11-17T22:28:56.448Z,15.60
2022-11-17T22:31:24.183Z,13.50
2022-11-17T22:33:52.434Z,16.70
2022-11-17T22:36:19.940Z,14.00
2022-11-17T22:38:51.685Z,15.00
2022-11-17T22:41:21.054Z,12.40
2022-11-17T22:43:58.449Z,13.10
2022-11-17T22:46:27.442Z,12.90
2022-11-17T22:48:55.576Z,13.40
2022-11-17T22:51:41.740Z,13.00
2022-11-17T22:54:09.011Z,13.10
2022-11-17T22:56:37.178Z,13.30
2022-11-17T22:59:04.389Z,12.90
2022-11-17T23:01:32.138Z,11.80
2022-11-17T23:04:00.291Z,12.50
2022-11-17T23:06:28.084Z,11.10
2022-11-17T23:08:57.565Z,11.30
2022-11-17T23:11:41.893Z,10.30
2022-11-17T23:14:13.114Z,12.20
2022-11-17T23:16:40.954Z,11.50
2022-11-17T23:19:12.786Z,11.90
2022-11-17T23:21:40.805Z,10.60
2022-11-17T23:24:13.164Z,11.30
2022-11-17T23:26:42.344Z,10.20
2022-11-17T23:29:10.351Z,10.40
2022-11-17T23:31:37.859Z,9.50
2022-11-17T23:34:05.832Z,10.10
2022-11-17T23:36:33.358Z,10.40
2022-11-17T23:39:00.767Z,11.10
2022-11-17T23:41:29.110Z,10.40
2022-11-17T23:43:56.628Z,10.20
2022-11-17T23:46:26.798Z,10.40
2022-11-17T23:48:56.518Z,10.30
2022-11-17T23:51:26.447Z,9.40
2022-11-17T23:53:54.383Z,8.90
2022-11-17T23:56:22.932Z,10.20
2022-11-17T23:58:52.124Z,10.10
